createdAt,value
2022-11-08T00:00:06.250Z,81.33
2022-11-08T00:02:33.505Z,79.88
2022-11-08T00:05:19.087Z,79.25
2022-11-08T00:08:04.533Z,79.47
2022-11-08T00:10:50.029Z,79.67
2022-11-08T00:13:35.274Z,80.29
2022-11-08T00:16:01.927Z,80.67
2022-11-08T00:18:28.776Z,80.64
2022-11-08T00:20:55.452Z,80.17
2022-11-08T00:23:22.079Z,79.71
2022-11-08T00:25:54.040Z,79.74
2022-11-08T00:28:20.844Z,79.46
2022-11-08T00:30:47.465Z,79.18
2022-11-08T00:33:14.125Z,79.77
2022-11-08T00:35:40.704Z,79.69
2022-11-08T00:38:07.361Z,80.07
2022-11-08T00:40:34.805Z,80.74
2022-11-08T00:43:01.458Z,79.27
2022-11-08T00:45:28.113Z,79.56
2022-11-08T00:47:54.899Z,78.34
2022-11-08T00:50:21.570Z,78.09
2022-11-08T00:52:48.165Z,77.61
2022-11-08T00:55:16.461Z,78.46
2022-11-08T00:58:01.339Z,79.16
2022-11-08T01:00:28.373Z,80.33
2022-11-08T01:03:14.248Z,80.10
2022-11-08T01:05:42.676Z,79.64
2022-11-08T01:08:13.914Z,80.57
2022-11-08T01:10:47.926Z,79.35
2022-11-08T01:13:14.752Z,78.21
2022-11-08T01:15:43.580Z,78.27
2022-11-08T01:18:12.380Z,78.80
2022-11-08T01:20:44.419Z,79.46
2022-11-08T01:23:12.776Z,78.78
2022-11-08T01:25:44.920Z,79.55
2022-11-08T01:28:12.736Z,80.13
2022-11-08T01:30:41.764Z,80.41
2022-11-08T01:33:08.753Z,79.90
2022-11-08T01:35:36.662Z,79.15
2022-11-08T01:38:05.620Z,79.51
2022-11-08T01:40:33.381Z,79.37
2022-11-08T01:42:59.965Z,79.72
2022-11-08T01:46:03.786Z,80.93
2022-11-08T01:48:31.446Z,79.80
2022-11-08T01:51:00.305Z,80.13
2022-11-08T01:53:28.137Z,79.52
2022-11-08T01:58:26.023Z,79.99
2022-11-08T02:00:53.157Z,79.95
2022-11-08T02:03:20.915Z,79.26
2022-11-08T02:05:47.968Z,79.19
2022-11-08T02:08:17.821Z,79.65
2022-11-08T02:10:48.754Z,80.11
2022-11-08T02:13:18.903Z,80.13
2022-11-08T02:15:46.161Z,79.63
2022-11-08T02:18:14.343Z,79.79
2022-11-08T02:20:51.167Z,79.31
2022-11-08T02:23:29.019Z,79.77
2022-11-08T02:25:56.154Z,79.95
2022-11-08T02:28:22.807Z,80.41
2022-11-08T02:30:49.607Z,80.07
2022-11-08T02:33:17.239Z,79.41
2022-11-08T02:35:50.036Z,79.62
2022-11-08T02:38:18.522Z,79.68
2022-11-08T02:40:53.419Z,79.88
2022-11-08T02:43:20.561Z,79.80
2022-11-08T02:45:47.462Z,79.39
2022-11-08T02:48:15.986Z,80.36
2022-11-08T02:50:43.331Z,80.17
2022-11-08T02:53:10.169Z,80.49
2022-11-08T02:55:37.223Z,79.57
2022-11-08T02:58:04.385Z,79.88
2022-11-08T03:00:31.264Z,79.64
2022-11-08T03:02:58.786Z,79.96
2022-11-08T03:05:27.723Z,79.96
2022-11-08T03:07:55.496Z,81.05
2022-11-08T03:10:23.811Z,80.17
2022-11-08T03:12:58.254Z,79.41
2022-11-08T03:15:25.596Z,79.82
2022-11-08T03:17:52.681Z,80.03
2022-11-08T03:20:19.437Z,80.36
2022-11-08T03:22:46.485Z,79.59
2022-11-08T03:25:13.540Z,79.93
2022-11-08T03:27:40.203Z,79.85
2022-11-08T03:30:07.939Z,80.07
2022-11-08T03:32:34.557Z,80.27
2022-11-08T03:35:01.143Z,81.30
2022-11-08T03:37:27.739Z,80.92
2022-11-08T03:39:54.527Z,81.68
2022-11-08T03:42:21.808Z,80.72
2022-11-08T03:44:51.592Z,80.27
2022-11-08T03:47:18.818Z,80.11
2022-11-08T03:49:46.217Z,79.69
2022-11-08T03:52:13.946Z,80.24
2022-11-08T03:54:40.561Z,79.50
2022-11-08T03:57:07.137Z,79.38
2022-11-08T03:59:33.762Z,79.33
2022-11-08T04:02:00.504Z,79.44
2022-11-08T04:04:27.224Z,80.71
2022-11-08T04:06:53.864Z,81.78
2022-11-08T04:09:21.800Z,79.31
2022-11-08T04:12:07.128Z,78.25
2022-11-08T04:14:52.362Z,78.15
2022-11-08T04:17:18.993Z,77.93
2022-11-08T04:20:04.354Z,78.05
2022-11-08T04:22:30.993Z,79.01
2022-11-08T04:24:57.596Z,77.75
2022-11-08T04:27:24.185Z,76.81
2022-11-08T04:29:51.066Z,77.70
2022-11-08T04:32:17.724Z,77.93
2022-11-08T04:34:44.293Z,76.83
2022-11-08T04:37:10.848Z,76.89
2022-11-08T04:39:37.445Z,76.70
2022-11-08T04:42:04.204Z,77.92
2022-11-08T04:44:30.848Z,77.23
2022-11-08T04:46:57.512Z,77.63
2022-11-08T04:49:24.129Z,77.71
2022-11-08T04:51:50.808Z,76.73
2022-11-08T04:54:17.499Z,77.00
2022-11-08T04:56:44.072Z,77.17
2022-11-08T04:59:12.087Z,77.80
2022-11-08T05:01:39.307Z,78.39
2022-11-08T05:04:06.088Z,78.05
2022-11-08T05:06:32.887Z,79.36
2022-11-08T05:09:00.325Z,78.47
2022-11-08T05:11:29.733Z,76.99
2022-11-08T05:13:56.667Z,78.61
2022-11-08T05:16:26.247Z,79.27
2022-11-08T05:18:53.221Z,78.98
2022-11-08T05:21:40.219Z,77.89
2022-11-08T05:24:09.824Z,76.17
2022-11-08T05:26:39.963Z,76.65
2022-11-08T05:29:06.566Z,78.11
2022-11-08T05:31:33.305Z,76.22
2022-11-08T05:34:00.761Z,75.83
2022-11-08T05:36:28.627Z,76.81
2022-11-08T05:38:55.910Z,77.99
2022-11-08T05:41:24.007Z,77.57
2022-11-08T05:43:52.449Z,76.39
2022-11-08T05:46:20.698Z,77.38
2022-11-08T05:48:48.511Z,75.31
2022-11-08T05:51:17.489Z,75.04
2022-11-08T05:53:44.183Z,76.00
2022-11-08T05:56:11.529Z,75.45
2022-11-08T05:58:38.261Z,75.47
2022-11-08T06:01:07.269Z,75.22
2022-11-08T06:03:34.142Z,76.01
2022-11-08T06:06:09.618Z,75.48
2022-11-08T06:08:37.267Z,76.63
2022-11-08T06:11:13.114Z,76.10
2022-11-08T06:13:40.677Z,74.92
2022-11-08T06:16:10.405Z,75.13
2022-11-08T06:18:37.861Z,74.68
2022-11-08T06:21:06.530Z,75.02
2022-11-08T06:23:33.678Z,75.15
2022-11-08T06:26:00.767Z,75.56
2022-11-08T06:28:27.576Z,75.47
2022-11-08T06:30:54.565Z,75.28
2022-11-08T06:33:21.828Z,76.14
2022-11-08T06:35:48.887Z,76.69
2022-11-08T06:38:15.537Z,76.92
2022-11-08T06:40:42.625Z,77.04
2022-11-08T06:43:16.354Z,75.77
2022-11-08T06:45:46.040Z,75.71
2022-11-08T06:48:12.639Z,76.76
2022-11-08T06:50:39.350Z,76.55
2022-11-08T06:53:08.608Z,76.62
2022-11-08T06:55:35.860Z,76.11
2022-11-08T06:58:03.348Z,76.42
2022-11-08T07:00:30.350Z,75.11
2022-11-08T07:03:00.080Z,75.73
2022-11-08T07:05:27.940Z,75.16
2022-11-08T07:07:56.745Z,74.22
2022-11-08T07:10:25.739Z,74.24
2022-11-08T07:13:02.428Z,74.90
2022-11-08T07:15:29.850Z,74.19
2022-11-08T07:18:04.302Z,74.99
2022-11-08T07:20:31.179Z,74.50
2022-11-08T07:22:58.297Z,74.42
2022-11-08T07:25:26.201Z,74.61
2022-11-08T07:27:57.300Z,72.13
2022-11-08T07:30:24.315Z,73.36
2022-11-08T07:32:51.574Z,73.84
2022-11-08T07:35:18.712Z,72.24
2022-11-08T07:37:45.318Z,72.77
2022-11-08T07:40:12.533Z,72.65
2022-11-08T07:43:09.671Z,72.48
2022-11-08T07:45:27.477Z,72.40
2022-11-08T07:48:09.520Z,72.69
2022-11-08T07:50:38.141Z,73.70
2022-11-08T07:53:28.539Z,72.28
2022-11-08T07:55:59.114Z,71.42
2022-11-08T07:58:59.849Z,71.60
2022-11-08T08:01:52.026Z,72.56
2022-11-08T08:04:24.037Z,71.07
2022-11-08T08:06:52.781Z,72.35
2022-11-08T08:09:29.724Z,70.15
2022-11-08T08:11:58.338Z,70.27
2022-11-08T08:14:45.986Z,69.62
2022-11-08T08:17:13.526Z,69.61
2022-11-08T08:19:40.121Z,69.83
2022-11-08T08:22:10.858Z,69.59
2022-11-08T08:24:50.773Z,70.55
2022-11-08T08:27:17.409Z,70.82
2022-11-08T08:29:47.247Z,70.52
2022-11-08T08:32:14.700Z,71.49
2022-11-08T08:35:13.422Z,71.41
2022-11-08T08:38:01.834Z,71.21
2022-11-08T08:40:29.245Z,71.22
2022-11-08T08:43:17.129Z,71.05
2022-11-08T08:45:47.068Z,70.84
2022-11-08T08:48:35.836Z,70.26
2022-11-08T08:51:07.755Z,69.75
2022-11-08T08:53:34.812Z,68.40
2022-11-08T08:56:06.823Z,67.47
2022-11-08T08:58:34.638Z,66.65
2022-11-08T09:04:28.137Z,67.10
2022-11-08T09:07:12.001Z,67.54
2022-11-08T09:09:43.905Z,68.86
2022-11-08T09:12:14.390Z,68.69
2022-11-08T09:14:41.414Z,67.04
2022-11-08T09:17:08.013Z,66.54
2022-11-08T09:19:34.712Z,65.90
2022-11-08T09:22:01.621Z,66.84
2022-11-08T09:24:28.352Z,67.04
2022-11-08T09:26:55.013Z,66.58
2022-11-08T09:29:21.722Z,65.63
2022-11-08T09:31:49.764Z,65.25
2022-11-08T09:34:19.222Z,65.58
2022-11-08T09:36:51.583Z,65.37
2022-11-08T09:39:18.557Z,65.17
2022-11-08T09:42:06.531Z,64.05
2022-11-08T09:44:41.755Z,64.33
2022-11-08T09:47:20.659Z,63.47
2022-11-08T09:49:58.293Z,63.45
2022-11-08T09:52:27.237Z,64.24
2022-11-08T09:55:01.765Z,63.78
2022-11-08T09:57:38.849Z,62.84
2022-11-08T10:00:07.446Z,62.46
2022-11-08T10:02:36.320Z,61.34
2022-11-08T10:05:09.407Z,61.58
2022-11-08T10:07:45.977Z,60.12
2022-11-08T10:10:36.008Z,59.63
2022-11-08T10:13:28.922Z,59.29
2022-11-08T10:16:11.112Z,58.19
2022-11-08T10:19:22.540Z,54.15
2022-11-08T10:21:58.421Z,56.21
2022-11-08T10:24:35.743Z,57.16
2022-11-08T10:27:10.491Z,59.58
2022-11-08T10:29:43.168Z,59.99
2022-11-08T10:32:18.298Z,61.17
2022-11-08T10:34:56.354Z,60.30
2022-11-08T10:37:24.899Z,58.69
2022-11-08T10:39:56.826Z,58.61
2022-11-08T10:42:50.362Z,58.34
2022-11-08T10:45:17.127Z,59.14
2022-11-08T10:47:46.100Z,59.21
2022-11-08T10:50:20.765Z,57.77
2022-11-08T10:53:02.685Z,57.91
2022-11-08T10:55:48.761Z,58.39
2022-11-08T10:58:41.750Z,58.75
2022-11-08T11:01:20.344Z,58.61
2022-11-08T11:03:50.733Z,58.68
2022-11-08T11:06:34.506Z,57.55
2022-11-08T11:09:18.232Z,57.16
2022-11-08T11:11:53.594Z,57.20
2022-11-08T11:14:23.536Z,57.02
2022-11-08T11:17:14.295Z,57.31
2022-11-08T11:19:53.983Z,56.20
2022-11-08T11:22:33.683Z,55.84
2022-11-08T11:25:15.611Z,57.09
2022-11-08T11:27:45.320Z,56.80
2022-11-08T11:30:18.147Z,56.64
2022-11-08T11:33:00.456Z,56.98
2022-11-08T11:35:45.413Z,57.42
2022-11-08T11:38:28.097Z,57.85
2022-11-08T11:41:00.980Z,56.42
2022-11-08T11:43:37.445Z,56.73
2022-11-08T11:46:41.639Z,57.70
2022-11-08T11:49:17.539Z,58.06
2022-11-08T11:51:46.899Z,57.84
2022-11-08T11:54:17.096Z,57.35
2022-11-08T11:57:09.672Z,57.26
2022-11-08T12:00:14.478Z,57.41
2022-11-08T12:03:04.693Z,57.41
2022-11-08T12:05:52.627Z,57.71
2022-11-08T12:08:40.846Z,58.13
2022-11-08T12:11:35.556Z,58.11
2022-11-08T12:14:30.539Z,57.31
2022-11-08T12:17:05.415Z,57.73
2022-11-08T12:20:09.140Z,58.63
2022-11-08T12:22:57.348Z,58.95
2022-11-08T12:25:28.308Z,57.44
2022-11-08T12:28:32.551Z,57.06
2022-11-08T12:31:24.009Z,58.05
2022-11-08T12:34:07.485Z,58.22
2022-11-08T12:36:46.277Z,57.83
2022-11-08T12:39:32.326Z,58.03
2022-11-08T12:42:21.815Z,56.77
2022-11-08T12:45:08.378Z,57.88
2022-11-08T12:47:44.149Z,57.36
2022-11-08T12:50:27.883Z,56.93
2022-11-08T12:53:22.082Z,56.54
2022-11-08T12:55:51.913Z,57.07
2022-11-08T12:58:46.495Z,56.91
2022-11-08T13:01:17.019Z,56.65
2022-11-08T13:04:00.601Z,56.31
2022-11-08T13:06:58.058Z,55.48
2022-11-08T13:09:40.280Z,55.47
2022-11-08T13:12:49.837Z,54.94
2022-11-08T13:15:21.747Z,55.49
2022-11-08T13:18:06.955Z,54.67
2022-11-08T13:20:43.079Z,54.89
2022-11-08T13:23:33.105Z,54.52
2022-11-08T13:26:24.335Z,53.77
2022-11-08T13:28:51.938Z,53.94
2022-11-08T13:31:50.773Z,54.05
2022-11-08T13:34:26.485Z,54.15
2022-11-08T13:37:06.086Z,53.31
2022-11-08T13:39:57.002Z,54.27
2022-11-08T13:42:23.539Z,53.59
2022-11-08T13:44:59.257Z,53.02
2022-11-08T13:47:32.657Z,53.36
2022-11-08T13:50:27.201Z,53.97
2022-11-08T13:53:18.951Z,53.39
2022-11-08T13:56:09.536Z,54.20
2022-11-08T13:58:45.035Z,53.96
2022-11-08T14:01:22.209Z,54.46
2022-11-08T14:03:52.600Z,53.40
2022-11-08T14:06:52.001Z,52.83
2022-11-08T14:09:56.605Z,53.08
2022-11-08T14:12:37.889Z,52.67
2022-11-08T14:15:33.548Z,52.55
2022-11-08T14:18:04.983Z,52.28
2022-11-08T14:20:36.831Z,53.13
2022-11-08T14:23:23.856Z,51.24
2022-11-08T14:25:55.582Z,51.65
2022-11-08T14:28:26.726Z,51.90
2022-11-08T14:30:53.811Z,51.38
2022-11-08T14:33:23.325Z,51.38
2022-11-08T14:36:16.378Z,51.86
2022-11-08T14:38:50.339Z,51.01
2022-11-08T14:41:24.769Z,51.54
2022-11-08T14:43:53.255Z,52.33
2022-11-08T14:46:29.466Z,52.51
2022-11-08T14:48:57.283Z,52.94
2022-11-08T14:51:25.967Z,52.35
2022-11-08T14:53:54.726Z,53.00
2022-11-08T14:56:27.772Z,53.76
2022-11-08T14:58:58.583Z,53.33
2022-11-08T15:01:33.174Z,54.95
2022-11-08T15:04:41.635Z,54.35
2022-11-08T15:07:19.279Z,55.33
2022-11-08T15:09:50.063Z,56.25
2022-11-08T15:12:21.950Z,57.22
2022-11-08T15:15:02.063Z,57.53
2022-11-08T15:17:39.384Z,56.99
2022-11-08T15:20:10.956Z,58.05
2022-11-08T15:22:37.651Z,58.41
2022-11-08T15:25:28.447Z,58.06
2022-11-08T15:28:22.963Z,57.79
2022-11-08T15:30:59.219Z,59.08
2022-11-08T15:33:36.639Z,59.64
2022-11-08T15:36:12.196Z,59.67
2022-11-08T15:38:49.147Z,59.85
2022-11-08T15:41:31.104Z,57.90
2022-11-08T15:44:14.880Z,58.64
2022-11-08T15:46:41.896Z,59.79
2022-11-08T15:49:17.767Z,58.62
2022-11-08T15:51:44.528Z,59.05
2022-11-08T15:54:11.171Z,59.74
2022-11-08T15:56:41.209Z,60.03
2022-11-08T15:59:22.336Z,60.45
2022-11-08T16:02:02.787Z,58.71
2022-11-08T16:04:33.021Z,59.29
2022-11-08T16:07:03.954Z,60.04
2022-11-08T16:09:33.966Z,60.78
2022-11-08T16:12:03.120Z,60.18
2022-11-08T16:14:31.017Z,60.50
2022-11-08T16:17:10.048Z,61.05
2022-11-08T16:19:37.129Z,60.45
2022-11-08T16:22:07.587Z,59.80
2022-11-08T16:24:34.465Z,60.61
2022-11-08T16:27:02.742Z,61.48
2022-11-08T16:29:29.579Z,60.98
2022-11-08T16:31:56.292Z,61.48
2022-11-08T16:34:23.222Z,61.85
2022-11-08T16:36:50.194Z,61.72
2022-11-08T16:39:21.168Z,62.01
2022-11-08T16:41:47.825Z,61.56
2022-11-08T16:44:14.840Z,60.96
2022-11-08T16:46:41.530Z,61.17
2022-11-08T16:49:19.173Z,61.82
2022-11-08T16:51:45.881Z,61.92
2022-11-08T16:54:18.251Z,62.88
2022-11-08T16:56:45.397Z,63.29
2022-11-08T16:59:12.071Z,63.64
2022-11-08T17:01:39.865Z,62.36
2022-11-08T17:04:06.592Z,62.83
2022-11-08T17:06:33.585Z,62.59
2022-11-08T17:09:04.012Z,62.48
2022-11-08T17:11:38.093Z,62.94
2022-11-08T17:14:05.362Z,63.66
2022-11-08T17:16:35.937Z,62.92
2022-11-08T17:19:10.151Z,63.18
2022-11-08T17:21:45.800Z,63.62
2022-11-08T17:24:21.264Z,63.80
2022-11-08T17:26:53.557Z,64.17
2022-11-08T17:29:21.197Z,63.94
2022-11-08T17:31:48.424Z,63.22
2022-11-08T17:34:16.611Z,63.60
2022-11-08T17:36:43.405Z,63.66
2022-11-08T17:39:14.996Z,63.42
2022-11-08T17:41:42.258Z,63.57
2022-11-08T17:44:09.245Z,63.26
2022-11-08T17:46:37.041Z,63.36
2022-11-08T17:49:05.077Z,63.55
2022-11-08T17:51:32.707Z,62.89
2022-11-08T17:53:59.981Z,62.18
2022-11-08T17:56:27.285Z,62.90
2022-11-08T17:58:54.159Z,64.14
2022-11-08T18:01:21.244Z,62.64
2022-11-08T18:03:48.215Z,62.87
2022-11-08T18:06:19.286Z,63.14
2022-11-08T18:08:46.101Z,62.95
2022-11-08T18:11:12.792Z,62.11
2022-11-08T18:13:39.518Z,61.20
2022-11-08T18:16:17.794Z,61.38
2022-11-08T18:18:46.293Z,62.16
2022-11-08T18:21:14.400Z,62.51
2022-11-08T18:23:43.247Z,62.58
2022-11-08T18:26:10.623Z,61.20
2022-11-08T18:28:38.884Z,61.90
2022-11-08T18:31:08.132Z,62.04
2022-11-08T18:33:35.896Z,61.96
2022-11-08T18:36:07.866Z,62.69
2022-11-08T18:38:41.963Z,63.09
2022-11-08T18:41:08.846Z,62.91
2022-11-08T18:43:35.501Z,62.53
2022-11-08T18:46:04.571Z,63.11
2022-11-08T18:48:35.445Z,63.56
2022-11-08T18:51:03.628Z,63.83
2022-11-08T18:53:30.473Z,64.98
2022-11-08T18:55:57.793Z,64.86
2022-11-08T18:58:25.028Z,63.80
2022-11-08T19:00:53.663Z,64.92
2022-11-08T19:03:22.639Z,64.25
2022-11-08T19:05:51.428Z,63.58
2022-11-08T19:08:21.467Z,64.29
2022-11-08T19:10:56.361Z,64.12
2022-11-08T19:13:29.106Z,63.56
2022-11-08T19:16:07.210Z,63.03
2022-11-08T19:18:35.981Z,62.61
2022-11-08T19:21:07.048Z,62.65
2022-11-08T19:23:35.355Z,62.51
2022-11-08T19:26:05.155Z,63.48
2022-11-08T19:28:34.238Z,62.85
2022-11-08T19:31:01.225Z,63.08
2022-11-08T19:33:29.442Z,61.95
2022-11-08T19:36:01.022Z,61.89
2022-11-08T19:38:27.806Z,62.63
2022-11-08T19:40:54.938Z,62.83
2022-11-08T19:43:21.706Z,62.93
2022-11-08T19:45:53.027Z,63.82
2022-11-08T19:48:20.645Z,63.91
2022-11-08T19:50:48.025Z,62.69
2022-11-08T19:53:14.839Z,63.72
2022-11-08T19:55:41.610Z,64.07
2022-11-08T19:58:08.394Z,63.94
2022-11-08T20:00:36.706Z,64.44
2022-11-08T20:03:06.935Z,64.48
2022-11-08T20:05:33.788Z,64.40
2022-11-08T20:08:04.786Z,64.14
2022-11-08T20:10:31.570Z,64.05
2022-11-08T20:12:58.260Z,64.56
2022-11-08T20:15:25.055Z,64.16
2022-11-08T20:17:51.825Z,65.35
2022-11-08T20:20:19.280Z,65.16
2022-11-08T20:22:48.181Z,64.65
2022-11-08T20:25:15.156Z,65.43
2022-11-08T20:27:42.249Z,64.18
2022-11-08T20:30:09.917Z,64.25
2022-11-08T20:32:36.581Z,64.88
2022-11-08T20:35:04.346Z,65.23
2022-11-08T20:37:31.321Z,65.29
2022-11-08T20:39:57.917Z,64.74
2022-11-08T20:42:24.577Z,65.21
2022-11-08T20:44:53.233Z,64.58
2022-11-08T20:47:20.452Z,63.95
2022-11-08T20:49:47.325Z,63.80
2022-11-08T20:52:16.603Z,63.17
2022-11-08T20:54:44.202Z,63.90
2022-11-08T20:57:11.054Z,64.63
2022-11-08T20:59:37.698Z,64.60
2022-11-08T21:02:05.053Z,64.52
2022-11-08T21:04:31.853Z,64.92
2022-11-08T21:07:56.029Z,64.93
2022-11-08T21:09:50.344Z,65.26
2022-11-08T21:12:17.882Z,65.41
2022-11-08T21:14:44.594Z,65.56
2022-11-08T21:17:26.931Z,65.21
2022-11-08T21:19:54.014Z,64.10
2022-11-08T21:22:20.825Z,64.15
2022-11-08T21:24:48.313Z,64.24
2022-11-08T21:27:15.752Z,64.88
2022-11-08T21:29:42.918Z,65.80
2022-11-08T21:32:09.549Z,64.75
2022-11-08T21:34:36.546Z,66.07
2022-11-08T21:37:03.221Z,66.20
2022-11-08T21:39:30.115Z,66.81
2022-11-08T21:41:56.801Z,67.41
2022-11-08T21:44:23.440Z,66.43
2022-11-08T21:46:50.133Z,67.41
2022-11-08T21:49:16.960Z,68.87
2022-11-08T21:51:43.679Z,69.42
2022-11-08T21:54:10.316Z,69.76
2022-11-08T21:56:38.143Z,70.34
2022-11-08T21:59:11.649Z,69.91
2022-11-08T22:01:40.294Z,69.55
2022-11-08T22:04:08.679Z,70.59
2022-11-08T22:06:36.226Z,70.56
2022-11-08T22:09:03.449Z,71.18
2022-11-08T22:11:35.955Z,71.74
2022-11-08T22:14:03.884Z,72.25
2022-11-08T22:16:30.711Z,72.90
2022-11-08T22:19:04.783Z,72.80
2022-11-08T22:21:40.407Z,73.61
2022-11-08T22:24:13.625Z,74.67
2022-11-08T22:26:41.618Z,75.09
2022-11-08T22:29:11.676Z,75.86
2022-11-08T22:31:38.868Z,76.77
2022-11-08T22:34:08.358Z,77.21
2022-11-08T22:36:41.447Z,76.81
2022-11-08T22:39:17.995Z,77.10
2022-11-08T22:41:46.973Z,78.18
2022-11-08T22:44:17.933Z,79.13
2022-11-08T22:46:51.514Z,80.15
2022-11-08T22:49:23.108Z,80.27
2022-11-08T22:51:49.918Z,80.89
2022-11-08T22:54:20.450Z,81.20
2022-11-08T22:56:51.819Z,80.90
2022-11-08T22:59:18.627Z,80.94
2022-11-08T23:01:45.824Z,80.92
2022-11-08T23:04:14.117Z,81.44
2022-11-08T23:06:49.667Z,81.60
2022-11-08T23:09:16.590Z,81.95
2022-11-08T23:12:02.707Z,82.11
2022-11-08T23:14:48.606Z,82.16
2022-11-08T23:17:16.874Z,82.38
2022-11-08T23:20:02.131Z,81.49
2022-11-08T23:22:48.599Z,81.80
2022-11-08T23:25:15.414Z,81.89
2022-11-08T23:28:00.695Z,82.28
2022-11-08T23:30:46.014Z,82.12
2022-11-08T23:33:12.692Z,81.48
2022-11-08T23:35:59.352Z,82.23
2022-11-08T23:38:25.955Z,82.42
2022-11-08T23:41:10.939Z,82.54
2022-11-08T23:43:56.140Z,81.19
2022-11-08T23:46:22.810Z,82.63
2022-11-08T23:48:49.516Z,82.36
2022-11-08T23:51:16.141Z,84.00
2022-11-08T23:53:43.859Z,83.17
2022-11-08T23:56:13.085Z,82.88
2022-11-08T23:58:39.660Z,84.10
